Time,TemperatureF,DewpointF,PressureIn,WindDirection,WindDirectionDegrees,WindSpeedMPH,WindSpeedGustMPH,Humidity,HourlyPrecipIn,Conditions,Clouds,dailyrainin,SolarRadiationWatts/m^2,SoftwareType,DateUTC
2013-05-02 00:01:00,56.0,-18.0,-100.00,WNW,292,9.0,14.0,4,0.00,,,0.00,0.000000,,2013-05-02 07:01:00,
2013-05-02 00:11:00,56.0,-18.0,-100.00,WNW,292,9.0,14.0,4,0.00,,,0.00,0.000000,,2013-05-02 07:11:00,
2013-05-02 00:21:00,56.0,-18.0,-100.00,WNW,292,9.0,14.0,4,0.00,,,0.00,0.000000,,2013-05-02 07:21:00,
2013-05-02 00:52:00,55.0,-19.0,-100.00,NNW,334,6.0,18.0,4,0.00,,,0.00,0.000000,,2013-05-02 07:52:00,
2013-05-02 01:02:00,55.0,-19.0,-100.00,NNW,334,6.0,18.0,4,0.00,,,0.00,0.000000,,2013-05-02 08:02:00,
2013-05-02 01:11:00,55.0,-19.0,-100.00,NNW,334,6.0,18.0,4,0.00,,,0.00,0.000000,,2013-05-02 08:11:00,
2013-05-02 01:21:00,55.0,-19.0,-100.00,NNW,334,6.0,18.0,4,0.00,,,0.00,0.000000,,2013-05-02 08:21:00,
2013-05-02 01:52:00,55.0,-15.0,-100.00,WNW,294,5.0,18.0,5,0.00,,,0.00,0.000000,,2013-05-02 08:52:00,
2013-05-02 02:02:00,55.0,-15.0,-100.00,WNW,294,5.0,18.0,5,0.00,,,0.00,0.000000,,2013-05-02 09:02:00,
2013-05-02 02:11:00,55.0,-15.0,-100.00,WNW,294,5.0,18.0,5,0.00,,,0.00,0.000000,,2013-05-02 09:11:00,
2013-05-02 02:21:00,55.0,-15.0,-100.00,WNW,294,5.0,18.0,5,0.00,,,0.00,0.000000,,2013-05-02 09:21:00,
2013-05-02 02:52:00,54.0,-12.0,-100.00,NNW,340,8.0,16.0,6,0.00,,,0.00,0.000000,,2013-05-02 09:52:00,
2013-05-02 03:02:00,54.0,-12.0,-100.00,NNW,340,8.0,16.0,6,0.00,,,0.00,0.000000,,2013-05-02 10:02:00,
2013-05-02 03:12:00,54.0,-12.0,-100.00,NNW,340,8.0,16.0,6,0.00,,,0.00,0.000000,,2013-05-02 10:12:00,
2013-05-02 03:22:00,54.0,-12.0,-100.00,NNW,340,8.0,16.0,6,0.00,,,0.00,0.000000,,2013-05-02 10:22:00,
2013-05-02 03:53:00,52.0,-13.0,-100.00,North,354,7.0,20.0,6,0.00,,,0.00,0.000000,,2013-05-02 10:53:00,
2013-05-02 04:02:00,52.0,-13.0,-100.00,North,354,7.0,20.0,6,0.00,,,0.00,0.000000,,2013-05-02 11:02:00,
2013-05-02 04:11:00,52.0,-13.0,-100.00,North,354,7.0,20.0,6,0.00,,,0.00,0.000000,,2013-05-02 11:11:00,
2013-05-02 04:21:00,52.0,-13.0,-100.00,North,354,7.0,20.0,6,0.00,,,0.00,0.000000,,2013-05-02 11:21:00,
2013-05-02 04:52:00,50.0,-12.0,-100.00,ENE,73,8.0,19.0,7,0.00,,,0.00,0.000000,,2013-05-02 11:52:00,
2013-05-02 05:01:00,50.0,-12.0,-100.00,ENE,73,8.0,19.0,7,0.00,,,0.00,0.000000,,2013-05-02 12:01:00,
2013-05-02 05:11:00,50.0,-12.0,-100.00,ENE,73,8.0,19.0,7,0.00,,,0.00,0.000000,,2013-05-02 12:11:00,
2013-05-02 05:21:00,50.0,-12.0,-100.00,ENE,73,8.0,19.0,7,0.00,,,0.00,0.000000,,2013-05-02 12:21:00,
2013-05-02 05:52:00,48.0,-8.0,-100.00,East,96,10.0,18.0,9,0.00,,,0.00,0.000000,,2013-05-02 12:52:00,
2013-05-02 06:01:00,48.0,-8.0,-100.00,East,96,10.0,18.0,9,0.00,,,0.00,0.000000,,2013-05-02 13:01:00,
2013-05-02 06:11:00,48.0,-8.0,-100.00,East,96,10.0,18.0,9,0.00,,,0.00,0.000000,,2013-05-02 13:11:00,
2013-05-02 06:21:00,48.0,-8.0,-100.00,East,96,10.0,18.0,9,0.00,,,0.00,0.000000,,2013-05-02 13:21:00,
2013-05-02 06:52:00,48.0,-6.0,-100.00,ENE,75,15.0,17.0,10,0.00,,,0.00,0.000000,,2013-05-02 13:52:00,
2013-05-02 07:02:00,48.0,-6.0,-100.00,ENE,75,15.0,17.0,10,0.00,,,0.00,0.000000,,2013-05-02 14:02:00,
2013-05-02 07:11:00,48.0,-6.0,-100.00,ENE,75,15.0,17.0,10,0.00,,,0.00,0.000000,,2013-05-02 14:11:00,
2013-05-02 07:21:00,48.0,-6.0,-100.00,ENE,75,15.0,17.0,10,0.00,,,0.00,0.000000,,2013-05-02 14:21:00,
2013-05-02 07:52:00,45.0,-10.0,-100.00,East,80,19.0,23.0,9,0.00,,,0.00,13.000000,,2013-05-02 14:52:00,
2013-05-02 08:02:00,45.0,-10.0,-100.00,East,80,19.0,23.0,9,0.00,,,0.00,13.000000,,2013-05-02 15:02:00,
2013-05-02 08:12:00,45.0,-10.0,-100.00,East,80,19.0,23.0,9,0.00,,,0.00,13.000000,,2013-05-02 15:12:00,
2013-05-02 08:21:00,45.0,-10.0,-100.00,East,80,19.0,23.0,9,0.00,,,0.00,13.000000,,2013-05-02 15:21:00,
2013-05-02 09:02:00,47.0,-9.0,-100.00,ENE,78,22.0,30.0,9,0.00,,,0.00,210.000000,,2013-05-02 16:02:00,
2013-05-02 09:13:00,47.0,-9.0,-100.00,ENE,78,22.0,30.0,9,0.00,,,0.00,210.000000,,2013-05-02 16:13:00,
2013-05-02 09:22:00,47.0,-9.0,-100.00,ENE,78,22.0,30.0,9,0.00,,,0.00,210.000000,,2013-05-02 16:22:00,
2013-05-02 09:52:00,48.0,-10.0,-100.00,East,85,20.0,37.0,8,0.00,,,0.00,495.000000,,2013-05-02 16:52:00,
2013-05-02 10:02:00,48.0,-10.0,-100.00,East,85,20.0,37.0,8,0.00,,,0.00,495.000000,,2013-05-02 17:02:00,
2013-05-02 10:12:00,48.0,-10.0,-100.00,East,85,20.0,37.0,8,0.00,,,0.00,495.000000,,2013-05-02 17:12:00,
2013-05-02 10:22:00,48.0,-10.0,-100.00,East,85,20.0,37.0,8,0.00,,,0.00,495.000000,,2013-05-02 17:22:00,
2013-05-02 10:52:00,51.0,-11.0,-100.00,East,86,21.0,36.0,7,0.00,,,0.00,767.000000,,2013-05-02 17:52:00,
2013-05-02 11:01:00,51.0,-11.0,-100.00,East,86,21.0,36.0,7,0.00,,,0.00,767.000000,,2013-05-02 18:01:00,
2013-05-02 11:11:00,51.0,-11.0,-100.00,East,86,21.0,36.0,7,0.00,,,0.00,767.000000,,2013-05-02 18:11:00,
2013-05-02 11:21:00,51.0,-11.0,-100.00,East,86,21.0,36.0,7,0.00,,,0.00,767.000000,,2013-05-02 18:21:00,
2013-05-02 11:52:00,55.0,-11.0,-100.00,East,89,23.0,36.0,6,0.00,,,0.00,998.000000,,2013-05-02 18:52:00,
2013-05-02 12:01:00,55.0,-11.0,-100.00,East,89,23.0,36.0,6,0.00,,,0.00,998.000000,,2013-05-02 19:01:00,
2013-05-02 12:11:00,55.0,-11.0,-100.00,East,89,23.0,36.0,6,0.00,,,0.00,998.000000,,2013-05-02 19:11:00,
2013-05-02 12:21:00,55.0,-11.0,-100.00,East,89,23.0,36.0,6,0.00,,,0.00,998.000000,,2013-05-02 19:21:00,
2013-05-02 12:52:00,58.0,-13.0,-100.00,ESE,105,15.0,39.0,5,0.00,,,0.00,1178.000000,,2013-05-02 19:52:00,
2013-05-02 13:02:00,58.0,-13.0,-100.00,ESE,105,15.0,39.0,5,0.00,,,0.00,1178.000000,,2013-05-02 20:02:00,
2013-05-02 13:11:00,58.0,-13.0,-100.00,ESE,105,15.0,39.0,5,0.00,,,0.00,1178.000000,,2013-05-02 20:11:00,
2013-05-02 13:21:00,58.0,-13.0,-100.00,ESE,105,15.0,39.0,5,0.00,,,0.00,1178.000000,,2013-05-02 20:21:00,
2013-05-02 13:52:00,60.0,-11.0,-100.00,WNW,296,13.0,33.0,5,0.00,,,0.00,1283.000000,,2013-05-02 20:52:00,
2013-05-02 14:01:00,60.0,-11.0,-100.00,WNW,296,13.0,33.0,5,0.00,,,0.00,1283.000000,,2013-05-02 21:01:00,
2013-05-02 14:11:00,60.0,-11.0,-100.00,WNW,296,13.0,33.0,5,0.00,,,0.00,1283.000000,,2013-05-02 21:11:00,
2013-05-02 14:21:00,60.0,-11.0,-100.00,WNW,296,13.0,33.0,5,0.00,,,0.00,1283.000000,,2013-05-02 21:21:00,
2013-05-02 14:53:00,63.0,-13.0,-100.00,ESE,114,11.0,27.0,4,0.00,,,0.00,1312.000000,,2013-05-02 21:53:00,
2013-05-02 15:02:00,63.0,-13.0,-100.00,ESE,114,11.0,27.0,4,0.00,,,0.00,1312.000000,,2013-05-02 22:02:00,
2013-05-02 15:12:00,63.0,-13.0,-100.00,ESE,114,11.0,27.0,4,0.00,,,0.00,1312.000000,,2013-05-02 22:12:00,
2013-05-02 15:22:00,63.0,-13.0,-100.00,ESE,114,11.0,27.0,4,0.00,,,0.00,1312.000000,,2013-05-02 22:22:00,
2013-05-02 15:52:00,62.0,-14.0,-100.00,ESE,122,11.0,26.0,4,0.00,,,0.00,1266.000000,,2013-05-02 22:52:00,
2013-05-02 16:02:00,62.0,-14.0,-100.00,ESE,122,11.0,26.0,4,0.00,,,0.00,1266.000000,,2013-05-02 23:02:00,
2013-05-02 16:11:00,62.0,-14.0,-100.00,ESE,122,11.0,26.0,4,0.00,,,0.00,1266.000000,,2013-05-02 23:11:00,
2013-05-02 16:22:00,62.0,-14.0,-100.00,ESE,122,11.0,26.0,4,0.00,,,0.00,1266.000000,,2013-05-02 23:22:00,
2013-05-02 16:52:00,63.0,-13.0,-100.00,ESE,108,10.0,23.0,4,0.00,,,0.00,1142.000000,,2013-05-02 23:52:00,
2013-05-02 17:01:00,63.0,-13.0,-100.00,ESE,108,10.0,23.0,4,0.00,,,0.00,1142.000000,,2013-05-03 00:01:00,
2013-05-02 17:11:00,63.0,-13.0,-100.00,ESE,108,10.0,23.0,4,0.00,,,0.00,1142.000000,,2013-05-03 00:11:00,
2013-05-02 17:21:00,63.0,-13.0,-100.00,ESE,108,10.0,23.0,4,0.00,,,0.00,1142.000000,,2013-05-03 00:21:00,
2013-05-02 17:52:00,64.0,-13.0,-100.00,East,95,8.0,17.0,4,0.00,,,0.00,947.000000,,2013-05-03 00:52:00,
2013-05-02 18:01:00,64.0,-13.0,-100.00,East,95,8.0,17.0,4,0.00,,,0.00,947.000000,,2013-05-03 01:01:00,
2013-05-02 18:11:00,64.0,-13.0,-100.00,East,95,8.0,17.0,4,0.00,,,0.00,947.000000,,2013-05-03 01:11:00,
2013-05-02 18:21:00,64.0,-13.0,-100.00,East,95,8.0,17.0,4,0.00,,,0.00,947.000000,,2013-05-03 01:21:00,
2013-05-02 18:52:00,64.0,-13.0,-100.00,East,88,13.0,19.0,4,0.00,,,0.00,698.000000,,2013-05-03 01:52:00,
2013-05-02 19:01:00,64.0,-13.0,-100.00,East,88,13.0,19.0,4,0.00,,,0.00,698.000000,,2013-05-03 02:01:00,
2013-05-02 19:11:00,64.0,-13.0,-100.00,East,88,13.0,19.0,4,0.00,,,0.00,698.000000,,2013-05-03 02:11:00,
2013-05-02 19:21:00,64.0,-13.0,-100.00,East,88,13.0,19.0,4,0.00,,,0.00,698.000000,,2013-05-03 02:21:00,
2013-05-02 19:52:00,61.0,-15.0,-100.00,NW,320,5.0,19.0,4,0.00,,,0.00,389.000000,,2013-05-03 02:52:00,
2013-05-02 20:01:00,61.0,-15.0,-100.00,NW,320,5.0,19.0,4,0.00,,,0.00,389.000000,,2013-05-03 03:01:00,
2013-05-02 20:11:00,61.0,-15.0,-100.00,NW,320,5.0,19.0,4,0.00,,,0.00,389.000000,,2013-05-03 03:11:00,
2013-05-02 20:21:00,61.0,-15.0,-100.00,NW,320,5.0,19.0,4,0.00,,,0.00,389.000000,,2013-05-03 03:21:00,
2013-05-02 20:53:00,59.0,-12.0,-100.00,NE,56,7.0,18.0,5,0.00,,,0.00,46.000000,,2013-05-03 03:53:00,
2013-05-02 21:02:00,59.0,-12.0,-100.00,NE,56,7.0,18.0,5,0.00,,,0.00,46.000000,,2013-05-03 04:02:00,
2013-05-02 21:12:00,59.0,-12.0,-100.00,NE,56,7.0,18.0,5,0.00,,,0.00,46.000000,,2013-05-03 04:12:00,
2013-05-02 21:22:00,59.0,-12.0,-100.00,NE,56,7.0,18.0,5,0.00,,,0.00,46.000000,,2013-05-03 04:22:00,
2013-05-02 21:53:00,55.0,-15.0,-100.00,ENE,62,7.0,13.0,5,0.00,,,0.00,3.000000,,2013-05-03 04:53:00,
2013-05-02 22:02:00,55.0,-15.0,-100.00,ENE,62,7.0,13.0,5,0.00,,,0.00,3.000000,,2013-05-03 05:02:00,
2013-05-02 22:12:00,55.0,-15.0,-100.00,ENE,62,7.0,13.0,5,0.00,,,0.00,3.000000,,2013-05-03 05:12:00,
2013-05-02 22:21:00,55.0,-15.0,-100.00,ENE,62,7.0,13.0,5,0.00,,,0.00,3.000000,,2013-05-03 05:21:00,
2013-05-02 22:52:00,54.0,-15.0,-100.00,NE,48,4.0,13.0,5,0.00,,,0.00,0.000000,,2013-05-03 05:52:00,
2013-05-02 23:01:00,54.0,-15.0,-100.00,NE,48,4.0,13.0,5,0.00,,,0.00,0.000000,,2013-05-03 06:01:00,
2013-05-02 23:11:00,54.0,-15.0,-100.00,NE,48,4.0,13.0,5,0.00,,,0.00,0.000000,,2013-05-03 06:11:00,
2013-05-02 23:21:00,54.0,-15.0,-100.00,NE,48,4.0,13.0,5,0.00,,,0.00,0.000000,,2013-05-03 06:21:00,
2013-05-02 23:52:00,53.0,-16.0,-100.00,ENE,70,8.0,12.0,5,0.00,,,0.00,0.000000,,2013-05-03 06:52:00,